createdAt,value
2019-03-24T00:00:22.547Z,60.8
2019-03-24T00:01:11.742Z,60.8
2019-03-24T00:02:02.097Z,60.8
2019-03-24T00:02:52.700Z,60.8
2019-03-24T00:03:41.964Z,60.8
2019-03-24T00:04:31.469Z,60.8
2019-03-24T00:05:22.330Z,60.8
2019-03-24T00:06:12.692Z,60.8
2019-03-24T00:07:02.734Z,60.7
2019-03-24T00:07:51.957Z,60.7
2019-03-24T00:08:42.862Z,60.7
2019-03-24T00:09:32.930Z,60.7
2019-03-24T00:10:22.987Z,60.7
2019-03-24T00:11:12.731Z,60.7
2019-03-24T00:12:02.562Z,60.7
2019-03-24T00:12:52.608Z,60.7
2019-03-24T00:13:42.957Z,60.7
2019-03-24T00:14:33.553Z,60.6
2019-03-24T00:15:31.416Z,60.6
2019-03-24T00:16:13.457Z,60.6
2019-03-24T00:17:03.466Z,60.6
2019-03-24T00:17:52.974Z,60.6
2019-03-24T00:18:43.901Z,60.6
2019-03-24T00:19:33.358Z,60.6
2019-03-24T00:20:23.977Z,60.6
2019-03-24T00:21:13.204Z,60.6
2019-03-24T00:22:03.829Z,60.6
2019-03-24T00:22:53.106Z,60.6
2019-03-24T00:23:43.941Z,60.6
2019-03-24T00:24:34.276Z,60.6
2019-03-24T00:25:23.801Z,60.6
2019-03-24T00:26:14.146Z,60.6
2019-03-24T00:27:03.930Z,60.6
2019-03-24T00:27:53.704Z,60.5
2019-03-24T00:28:44.348Z,60.5
2019-03-24T00:29:33.803Z,60.5
2019-03-24T00:30:23.913Z,60.5
2019-03-24T00:31:14.271Z,60.5
2019-03-24T00:32:03.743Z,60.5
2019-03-24T00:32:54.065Z,60.5
2019-03-24T00:33:44.718Z,60.5
2019-03-24T00:34:34.233Z,60.4
2019-03-24T00:35:24.793Z,60.4
2019-03-24T00:36:14.068Z,60.4
2019-03-24T00:37:04.660Z,60.4
2019-03-24T00:37:54.964Z,60.4
2019-03-24T00:38:44.762Z,60.4
2019-03-24T00:39:34.850Z,60.4
2019-03-24T00:40:25.442Z,60.4
2019-03-24T00:41:14.943Z,60.4
2019-03-24T00:42:05.562Z,60.4
2019-03-24T00:42:54.517Z,60.4
2019-03-24T00:43:45.400Z,60.4
2019-03-24T00:44:35.188Z,60.4
2019-03-24T00:45:36.136Z,60.4
2019-03-24T00:46:15.285Z,60.4
2019-03-24T00:47:04.827Z,60.4
2019-03-24T00:47:55.712Z,60.4
2019-03-24T00:48:46.037Z,60.3
2019-03-24T00:49:35.254Z,60.3
2019-03-24T00:50:25.895Z,60.3
2019-03-24T00:51:15.654Z,60.3
2019-03-24T00:52:06.024Z,60.3
2019-03-24T00:52:55.508Z,60.3
2019-03-24T00:53:45.859Z,60.3
2019-03-24T00:54:35.369Z,60.3
2019-03-24T00:55:25.682Z,60.3
2019-03-24T00:56:16.305Z,60.3
2019-03-24T00:57:06.377Z,60.3
2019-03-24T00:57:56.145Z,60.3
2019-03-24T00:58:46.821Z,60.3
2019-03-24T00:59:36.576Z,60.3
2019-03-24T01:00:25.511Z,60.3
2019-03-24T01:01:16.129Z,60.2
2019-03-24T01:02:06.754Z,60.2
2019-03-24T01:02:56.781Z,60.2
2019-03-24T01:03:46.574Z,60.2
2019-03-24T01:04:36.903Z,60.2
2019-03-24T01:05:26.181Z,60.2
2019-03-24T01:06:15.659Z,60.2
2019-03-24T01:07:07.088Z,60.2
2019-03-24T01:07:57.164Z,60.1
2019-03-24T01:08:46.666Z,60.1
2019-03-24T01:09:36.758Z,60.1
2019-03-24T01:10:26.788Z,60.2
2019-03-24T01:11:17.116Z,60.1
2019-03-24T01:12:06.906Z,60.1
2019-03-24T01:12:57.238Z,60.1
2019-03-24T01:13:47.890Z,60.1
2019-03-24T01:14:37.650Z,60.1
2019-03-24T01:15:27.950Z,60.1
2019-03-24T01:16:17.784Z,60.1
2019-03-24T01:17:07.546Z,60.1
2019-03-24T01:17:59.821Z,60.1
2019-03-24T01:18:47.963Z,60.1
2019-03-24T01:19:37.995Z,60.1
2019-03-24T01:20:28.101Z,60.1
2019-03-24T01:21:17.328Z,60
2019-03-24T01:22:07.085Z,60
2019-03-24T01:22:58.129Z,60
2019-03-24T01:23:47.732Z,60
2019-03-24T01:24:38.359Z,60
2019-03-24T01:25:28.768Z,60
2019-03-24T01:26:17.938Z,60
2019-03-24T01:27:08.306Z,60
2019-03-24T01:27:58.057Z,60
2019-03-24T01:28:47.295Z,59.9
2019-03-24T01:29:38.452Z,59.9
2019-03-24T01:30:28.240Z,59.9
2019-03-24T01:31:18.574Z,59.9
2019-03-24T01:32:08.897Z,59.9
2019-03-24T01:32:58.955Z,59.9
2019-03-24T01:33:49.022Z,59.9
2019-03-24T01:34:38.530Z,59.9
2019-03-24T01:35:29.447Z,59.9
2019-03-24T01:36:18.654Z,59.9
2019-03-24T01:37:08.995Z,59.9
2019-03-24T01:37:59.042Z,59.9
2019-03-24T01:38:49.694Z,59.9
2019-03-24T01:39:39.465Z,59.9
2019-03-24T01:40:29.804Z,59.9
2019-03-24T01:41:19.571Z,59.9
2019-03-24T01:42:09.356Z,59.8
2019-03-24T01:42:59.169Z,59.8
2019-03-24T01:43:49.538Z,59.8
2019-03-24T01:44:39.546Z,59.8
2019-03-24T01:45:29.048Z,59.8
2019-03-24T01:46:18.841Z,59.8
2019-03-24T01:47:09.457Z,59.8
2019-03-24T01:48:00.347Z,59.8
2019-03-24T01:48:50.391Z,59.8
2019-03-24T01:49:40.154Z,59.8
2019-03-24T01:50:30.006Z,59.8
2019-03-24T01:51:20.029Z,59.8
2019-03-24T01:52:10.352Z,59.8
2019-03-24T01:53:00.693Z,59.8
2019-03-24T01:53:50.758Z,59.8
2019-03-24T01:54:40.313Z,59.8
2019-03-24T01:55:30.626Z,59.7
2019-03-24T01:56:20.928Z,59.8
2019-03-24T01:57:11.003Z,59.7
2019-03-24T01:58:00.508Z,59.7
2019-03-24T01:58:50.848Z,59.7
2019-03-24T01:59:40.898Z,59.7
2019-03-24T02:00:31.224Z,59.7
2019-03-24T02:01:20.766Z,59.7
2019-03-24T02:02:10.880Z,59.7
2019-03-24T02:03:00.895Z,59.7
2019-03-24T02:03:51.518Z,59.6
2019-03-24T02:04:41.271Z,59.6
2019-03-24T02:05:31.768Z,59.6
2019-03-24T02:06:20.672Z,59.6
2019-03-24T02:07:10.726Z,59.6
2019-03-24T02:08:01.228Z,59.6
2019-03-24T02:08:51.573Z,59.6
2019-03-24T02:09:41.092Z,59.6
2019-03-24T02:10:30.693Z,59.6
2019-03-24T02:11:21.773Z,59.6
2019-03-24T02:12:10.770Z,59.6
2019-03-24T02:13:01.118Z,59.6
2019-03-24T02:13:51.925Z,59.6
2019-03-24T02:14:41.538Z,59.6
2019-03-24T02:15:31.858Z,59.6
2019-03-24T02:16:21.355Z,59.6
2019-03-24T02:17:11.157Z,59.5
2019-03-24T02:18:02.045Z,59.5
2019-03-24T02:18:51.825Z,59.5
2019-03-24T02:19:41.067Z,59.5
2019-03-24T02:20:31.455Z,59.5
2019-03-24T02:21:22.064Z,59.5
2019-03-24T02:22:12.084Z,59.5
2019-03-24T02:23:02.872Z,59.5
2019-03-24T02:23:52.194Z,59.5
2019-03-24T02:24:42.529Z,59.5
2019-03-24T02:25:31.819Z,59.4
2019-03-24T02:26:21.596Z,59.4
2019-03-24T02:27:11.879Z,59.4
2019-03-24T02:28:02.289Z,59.4
2019-03-24T02:28:52.071Z,59.4
2019-03-24T02:29:42.144Z,59.4
2019-03-24T02:30:32.282Z,59.4
2019-03-24T02:31:22.579Z,59.4
2019-03-24T02:32:12.644Z,59.4
2019-03-24T02:33:02.435Z,59.4
2019-03-24T02:33:52.512Z,59.4
2019-03-24T02:34:42.312Z,59.4
2019-03-24T02:35:32.082Z,59.4
2019-03-24T02:36:21.604Z,59.4
2019-03-24T02:37:11.930Z,59.4
2019-03-24T02:38:02.490Z,59.4
2019-03-24T02:38:52.874Z,59.3
2019-03-24T02:39:43.405Z,59.3
2019-03-24T02:40:32.409Z,59.3
2019-03-24T02:41:23.764Z,59.3
2019-03-24T02:42:13.814Z,59.3
2019-03-24T02:43:03.122Z,59.3
2019-03-24T02:43:53.133Z,59.3
2019-03-24T02:44:42.939Z,59.3
2019-03-24T02:45:33.817Z,59.3
2019-03-24T02:46:28.513Z,59.3
2019-03-24T02:47:13.461Z,59.3
2019-03-24T02:48:03.798Z,59.3
2019-03-24T02:48:54.317Z,59.3
2019-03-24T02:49:43.854Z,59.3
2019-03-24T02:50:33.545Z,59.3
2019-03-24T02:51:24.256Z,59.3
2019-03-24T02:52:14.562Z,59.3
2019-03-24T02:53:04.417Z,59.2
2019-03-24T02:53:53.848Z,59.2
2019-03-24T02:54:44.769Z,59.2
2019-03-24T02:55:34.249Z,59.2
2019-03-24T02:56:24.526Z,59.2
2019-03-24T02:57:14.130Z,59.2
2019-03-24T02:58:05.218Z,59.2
2019-03-24T02:58:55.080Z,59.1
2019-03-24T02:59:45.622Z,59.1
2019-03-24T03:00:34.842Z,59.1
2019-03-24T03:01:25.687Z,59.1
2019-03-24T03:02:15.525Z,59.1
2019-03-24T03:03:05.105Z,59.1
2019-03-24T03:03:55.951Z,59.1
2019-03-24T03:07:25.760Z,59.1
2019-03-24T03:08:15.598Z,59.1
2019-03-24T03:09:05.078Z,59.1
2019-03-24T03:09:56.206Z,59.1
2019-03-24T03:10:46.319Z,59.1
2019-03-24T03:11:36.820Z,59.1
2019-03-24T03:12:25.647Z,59.1
2019-03-24T03:13:16.664Z,59.1
2019-03-24T03:14:05.964Z,59
2019-03-24T03:14:56.771Z,59
2019-03-24T03:15:46.840Z,59
2019-03-24T03:16:43.342Z,59
2019-03-24T03:17:26.805Z,59
2019-03-24T03:18:16.505Z,59
2019-03-24T03:19:06.840Z,59
2019-03-24T03:19:58.386Z,59
2019-03-24T03:20:47.517Z,58.9
2019-03-24T03:21:37.294Z,58.9
2019-03-24T03:22:27.089Z,58.9
2019-03-24T03:23:17.449Z,58.9
2019-03-24T03:24:07.473Z,58.9
2019-03-24T03:24:57.271Z,58.9
2019-03-24T03:25:47.599Z,58.9
2019-03-24T03:26:37.629Z,58.9
2019-03-24T03:27:26.851Z,58.9
2019-03-24T03:28:18.051Z,58.9
2019-03-24T03:29:07.654Z,58.9
2019-03-24T03:29:57.614Z,58.9
2019-03-24T03:30:48.180Z,58.9
2019-03-24T03:31:38.411Z,58.9
2019-03-24T03:32:28.206Z,58.9
2019-03-24T03:33:18.442Z,58.9
2019-03-24T03:34:08.656Z,58.9
2019-03-24T03:34:58.460Z,58.8
2019-03-24T03:35:48.147Z,58.8
2019-03-24T03:36:38.425Z,58.8
2019-03-24T03:37:28.125Z,58.8
2019-03-24T03:38:18.781Z,58.8
2019-03-24T03:39:08.530Z,58.8
2019-03-24T03:40:03.865Z,58.8
2019-03-24T03:40:49.155Z,58.8
2019-03-24T03:41:39.036Z,58.8
2019-03-24T03:42:28.847Z,58.8
2019-03-24T03:43:18.847Z,58.8
2019-03-24T03:44:08.640Z,58.8
2019-03-24T03:44:58.734Z,58.8
2019-03-24T03:45:49.066Z,58.8
2019-03-24T03:46:53.977Z,58.8
2019-03-24T03:47:28.341Z,58.8
2019-03-24T03:48:19.219Z,58.8
2019-03-24T03:49:09.358Z,58.7
2019-03-24T03:49:59.077Z,58.7
2019-03-24T03:50:49.470Z,58.7
2019-03-24T03:51:39.236Z,58.7
2019-03-24T03:52:29.488Z,58.7
2019-03-24T03:53:19.564Z,58.7
2019-03-24T03:54:09.782Z,58.7
2019-03-24T03:54:59.778Z,58.7
2019-03-24T03:55:49.503Z,58.6
2019-03-24T03:56:39.366Z,58.6
2019-03-24T03:57:29.886Z,58.6
2019-03-24T03:58:19.948Z,58.6
2019-03-24T03:59:09.473Z,58.6
2019-03-24T04:00:00.119Z,58.6
2019-03-24T04:00:50.195Z,58.6
2019-03-24T04:01:39.919Z,58.6
2019-03-24T04:02:30.246Z,58.6
2019-03-24T04:03:20.289Z,58.6
2019-03-24T04:10:50.871Z,58.5
2019-03-24T04:11:40.949Z,58.5
2019-03-24T04:12:30.981Z,58.5
2019-03-24T04:13:20.227Z,58.5
2019-03-24T04:14:11.081Z,58.5
2019-03-24T04:15:01.744Z,58.5
2019-03-24T04:15:50.396Z,58.5
2019-03-24T04:16:41.007Z,58.5
2019-03-24T04:17:30.789Z,58.5
2019-03-24T04:18:20.910Z,58.4
2019-03-24T04:19:11.202Z,58.4
2019-03-24T04:20:01.597Z,58.4
2019-03-24T04:20:51.589Z,58.4
2019-03-24T04:21:41.089Z,58.4
2019-03-24T04:22:31.994Z,58.4
2019-03-24T04:23:21.821Z,58.4
2019-03-24T04:24:12.137Z,58.4
2019-03-24T04:25:02.162Z,58.4
2019-03-24T04:25:52.042Z,58.4
2019-03-24T04:26:41.469Z,58.4
2019-03-24T04:27:32.093Z,58.4
2019-03-24T04:28:21.623Z,58.4
2019-03-24T04:29:11.946Z,58.4
2019-03-24T04:30:01.443Z,58.4
2019-03-24T04:30:51.767Z,58.4
2019-03-24T04:31:42.702Z,58.3
2019-03-24T04:32:32.463Z,58.3
2019-03-24T04:33:22.486Z,58.3
2019-03-24T04:34:12.630Z,58.3
2019-03-24T04:35:02.246Z,58.3
2019-03-24T04:35:52.642Z,58.3
2019-03-24T04:36:42.217Z,58.3
2019-03-24T04:37:35.058Z,58.3
2019-03-24T04:38:22.572Z,58.3
2019-03-24T04:39:12.882Z,58.3
2019-03-24T04:40:02.829Z,58.3
2019-03-24T04:40:52.271Z,58.3
2019-03-24T04:41:42.799Z,58.3
2019-03-24T04:42:32.590Z,58.3
2019-03-24T04:43:22.976Z,58.3
2019-03-24T04:44:13.499Z,58.3
2019-03-24T04:45:03.022Z,58.3
2019-03-24T04:45:53.064Z,58.2
2019-03-24T04:46:42.576Z,58.3
2019-03-24T04:47:33.446Z,58.3
2019-03-24T04:48:22.696Z,58.2
2019-03-24T04:49:13.571Z,58.2
2019-03-24T04:50:03.665Z,58.2
2019-03-24T04:50:53.759Z,58.2
2019-03-24T04:51:43.496Z,58.2
2019-03-24T04:52:34.100Z,58.2
2019-03-24T04:53:25.474Z,58.1
2019-03-24T04:54:13.109Z,58.1
2019-03-24T04:55:03.763Z,58.1
2019-03-24T04:55:53.518Z,58.1
2019-03-24T04:56:43.846Z,58.1
2019-03-24T04:57:33.912Z,58.1
2019-03-24T04:58:23.433Z,58.1
2019-03-24T04:59:13.496Z,58.1
2019-03-24T05:00:04.343Z,58.1
2019-03-24T05:00:54.539Z,58.1
2019-03-24T05:01:43.659Z,58.1
2019-03-24T05:02:34.315Z,58.1
2019-03-24T05:03:24.665Z,58.1
2019-03-24T05:04:14.770Z,58.1
2019-03-24T05:05:05.049Z,58.1
2019-03-24T05:05:54.281Z,58.1
2019-03-24T05:06:44.855Z,58.1
2019-03-24T05:07:34.621Z,58.1
2019-03-24T05:08:25.008Z,58.1
2019-03-24T05:09:15.293Z,58
2019-03-24T05:10:05.102Z,58
2019-03-24T05:10:54.310Z,58
2019-03-24T05:11:45.217Z,58
2019-03-24T05:12:34.700Z,58
2019-03-24T05:13:24.767Z,58
2019-03-24T05:14:15.390Z,58
2019-03-24T05:15:05.482Z,58
2019-03-24T05:15:55.314Z,57.9
2019-03-24T05:16:45.557Z,57.9
2019-03-24T05:17:35.642Z,57.9
2019-03-24T05:18:25.962Z,57.9
2019-03-24T05:19:16.026Z,57.9
2019-03-24T05:20:06.084Z,57.9
2019-03-24T05:20:55.032Z,57.9
2019-03-24T05:21:45.952Z,57.9
2019-03-24T05:22:36.277Z,57.9
2019-03-24T05:23:25.789Z,57.9
2019-03-24T05:24:16.133Z,57.9
2019-03-24T05:25:05.927Z,57.9
2019-03-24T05:25:56.529Z,57.9
2019-03-24T05:26:45.742Z,57.9
2019-03-24T05:27:36.132Z,57.9
2019-03-24T05:28:25.619Z,57.9
2019-03-24T05:29:16.505Z,57.9
2019-03-24T05:30:05.997Z,57.8
2019-03-24T05:30:56.056Z,57.9
2019-03-24T05:31:46.394Z,57.8
2019-03-24T05:32:36.446Z,57.8
2019-03-24T05:33:26.502Z,57.8
2019-03-24T05:34:16.024Z,57.8
2019-03-24T05:35:08.106Z,57.8
2019-03-24T05:35:56.978Z,57.8
2019-03-24T05:36:46.479Z,57.8
2019-03-24T05:37:37.096Z,57.8
2019-03-24T05:45:57.974Z,57.7
2019-03-24T05:46:46.911Z,57.7
2019-03-24T05:47:41.955Z,57.7
2019-03-24T05:48:27.908Z,57.7
2019-03-24T05:49:17.915Z,57.7
2019-03-24T05:50:07.708Z,57.7
2019-03-24T05:50:58.091Z,57.7
2019-03-24T05:51:47.818Z,57.7
2019-03-24T05:52:37.895Z,57.6
2019-03-24T05:53:28.218Z,57.7
2019-03-24T05:54:17.763Z,57.6
2019-03-24T05:55:07.796Z,57.6
2019-03-24T05:55:58.455Z,57.6
2019-03-24T05:56:47.923Z,57.6
2019-03-24T05:57:38.287Z,57.6
2019-03-24T05:58:28.923Z,57.6
2019-03-24T05:59:18.720Z,57.6
2019-03-24T06:00:08.742Z,57.6
2019-03-24T06:00:58.530Z,57.6
2019-03-24T06:01:49.117Z,57.6
2019-03-24T06:02:38.618Z,57.6
2019-03-24T06:03:28.110Z,57.6
2019-03-24T06:05:25.503Z,57.6
2019-03-24T06:06:15.587Z,57.5
2019-03-24T06:07:05.934Z,57.6
2019-03-24T06:07:56.537Z,57.5
2019-03-24T06:08:46.584Z,57.5
2019-03-24T06:09:36.402Z,57.5
2019-03-24T06:10:26.138Z,57.5
2019-03-24T06:11:15.670Z,57.5
2019-03-24T06:12:06.286Z,57.5
2019-03-24T06:12:56.950Z,57.5
2019-03-24T06:13:45.984Z,57.4
2019-03-24T06:14:36.949Z,57.4
2019-03-24T06:15:26.507Z,57.4
2019-03-24T06:16:16.585Z,57.4
2019-03-24T06:17:06.966Z,57.4
2019-03-24T06:17:56.707Z,57.4
2019-03-24T06:18:46.242Z,57.4
2019-03-24T06:19:36.271Z,57.4
2019-03-24T06:20:27.169Z,57.4
2019-03-24T06:21:17.007Z,57.4
2019-03-24T06:22:07.284Z,57.4
2019-03-24T06:22:56.562Z,57.4
2019-03-24T06:23:46.871Z,57.4
2019-03-24T06:24:37.219Z,57.4
2019-03-24T06:25:27.596Z,57.4
2019-03-24T06:26:17.306Z,57.4
2019-03-24T06:27:07.167Z,57.4
2019-03-24T06:27:58.026Z,57.4
2019-03-24T07:05:25.725Z,57.1
2019-03-24T07:06:15.270Z,57
2019-03-24T07:07:06.440Z,57.1
2019-03-24T07:07:56.485Z,57
2019-03-24T07:08:45.450Z,57
2019-03-24T07:09:36.049Z,57
2019-03-24T07:10:25.855Z,57
2019-03-24T07:11:18.235Z,57
2019-03-24T07:12:05.950Z,57
2019-03-24T07:12:56.845Z,57
2019-03-24T07:13:46.632Z,57
2019-03-24T07:14:36.658Z,56.9
2019-03-24T07:15:26.460Z,56.9
2019-03-24T07:16:19.080Z,56.9
2019-03-24T07:17:06.853Z,56.9
2019-03-24T07:17:55.820Z,56.9
2019-03-24T07:18:46.700Z,56.9
2019-03-24T07:19:36.762Z,56.9
2019-03-24T07:20:27.128Z,56.9
2019-03-24T07:21:17.435Z,56.9
2019-03-24T07:22:09.280Z,56.9
2019-03-24T07:22:57.274Z,56.9
2019-03-24T07:23:47.339Z,56.9
2019-03-24T07:24:37.403Z,56.9
2019-03-24T07:25:26.639Z,56.9
2019-03-24T07:26:17.507Z,56.9
2019-03-24T07:27:07.580Z,56.9
2019-03-24T07:27:57.375Z,56.9
2019-03-24T07:28:47.429Z,56.9
2019-03-24T07:29:37.191Z,56.8
2019-03-24T07:30:27.846Z,56.8
2019-03-24T07:31:17.906Z,56.8
2019-03-24T07:32:07.679Z,56.8
2019-03-24T07:32:58.312Z,56.8
2019-03-24T07:33:48.074Z,56.8
2019-03-24T07:34:38.139Z,56.8
2019-03-24T07:35:27.924Z,56.8
2019-03-24T07:36:17.451Z,56.8
2019-03-24T07:37:08.025Z,56.8
2019-03-24T07:37:58.643Z,56.8
2019-03-24T07:38:48.441Z,56.8
2019-03-24T07:39:38.228Z,56.8
2019-03-24T07:40:28.007Z,56.8
2019-03-24T07:41:17.801Z,56.8
2019-03-24T07:42:10.236Z,56.8
2019-03-24T07:42:57.913Z,56.7
2019-03-24T07:43:48.251Z,56.7
2019-03-24T07:44:38.297Z,56.7
2019-03-24T07:45:28.644Z,56.6
2019-03-24T07:46:18.973Z,56.6
2019-03-24T07:47:09.028Z,56.6
2019-03-24T07:47:59.393Z,56.6
2019-03-24T07:48:49.159Z,56.6
2019-03-24T07:49:38.918Z,56.6
2019-03-24T07:50:28.998Z,56.5
2019-03-24T07:51:19.336Z,56.4
2019-03-24T07:52:09.413Z,56.4
2019-03-24T07:52:59.445Z,56.4
2019-03-24T07:53:49.790Z,56.4
2019-03-24T07:54:39.288Z,56.4
2019-03-24T07:55:29.629Z,56.3
2019-03-24T07:56:19.700Z,56.3
2019-03-24T07:57:09.055Z,56.3
2019-03-24T07:58:00.128Z,56.3
2019-03-24T07:58:50.710Z,56.2
2019-03-24T07:59:40.239Z,56.2
2019-03-24T08:00:30.000Z,56.1
2019-03-24T08:01:19.790Z,56.1
2019-03-24T08:02:09.843Z,56
2019-03-24T08:03:00.540Z,55.9
2019-03-24T08:03:49.967Z,55.9
2019-03-24T08:04:40.309Z,55.8
2019-03-24T08:05:30.419Z,55.8
2019-03-24T08:06:20.416Z,55.8
2019-03-24T08:07:10.514Z,55.7
2019-03-24T08:08:00.279Z,55.6
2019-03-24T08:08:50.055Z,55.6
2019-03-24T08:09:41.605Z,55.5
2019-03-24T08:10:30.447Z,55.4
2019-03-24T08:11:20.542Z,55.3
2019-03-24T08:12:10.594Z,55.3
2019-03-24T08:13:01.487Z,55.1
2019-03-24T08:13:58.174Z,55.1
2019-03-24T08:14:41.297Z,54.9
2019-03-24T08:15:30.853Z,54.9
2019-03-24T08:16:20.662Z,54.8
2019-03-24T08:17:11.201Z,54.8
2019-03-24T08:18:00.974Z,54.7
2019-03-24T08:18:50.788Z,54.6
2019-03-24T08:19:40.628Z,54.6
2019-03-24T08:20:31.733Z,54.6
2019-03-24T08:21:20.701Z,54.6
2019-03-24T08:22:11.321Z,54.6
2019-03-24T08:23:01.649Z,54.6
2019-03-24T08:23:51.414Z,54.6
2019-03-24T08:24:41.744Z,54.6
2019-03-24T08:25:30.448Z,54.5
2019-03-24T08:26:21.363Z,54.5
2019-03-24T08:27:11.398Z,54.4
2019-03-24T08:28:01.731Z,54.4
2019-03-24T08:28:52.337Z,54.4
2019-03-24T08:29:42.399Z,54.4
2019-03-24T08:30:33.446Z,54.4
2019-03-24T08:31:22.518Z,54.3
2019-03-24T08:32:11.473Z,54.3
2019-03-24T08:33:02.421Z,54.3
2019-03-24T08:33:52.455Z,54.3
2019-03-24T08:34:42.473Z,54.3
2019-03-24T08:35:32.847Z,54.3
2019-03-24T08:36:22.623Z,54.3
2019-03-24T08:37:13.003Z,54.3
2019-03-24T08:38:02.762Z,54.3
2019-03-24T08:38:53.077Z,54.3
2019-03-24T08:39:42.870Z,54.3
2019-03-24T08:40:32.923Z,54.3
2019-03-24T08:41:22.410Z,54.2
2019-03-24T08:42:12.773Z,54.2
2019-03-24T08:43:03.094Z,54.2
2019-03-24T08:43:53.450Z,54.2
2019-03-24T08:44:43.215Z,54.2
2019-03-24T08:45:33.277Z,54.2
2019-03-24T08:46:23.047Z,54.1
2019-03-24T08:47:13.407Z,54.1
2019-03-24T08:48:02.908Z,54.1
2019-03-24T08:48:53.510Z,54.1
2019-03-24T08:49:43.599Z,54.1
2019-03-24T08:50:33.644Z,54.1
2019-03-24T08:51:22.854Z,54.1
2019-03-24T08:52:13.264Z,54.1
2019-03-24T08:53:03.532Z,54.1
2019-03-24T08:53:54.144Z,54.1
2019-03-24T08:54:43.386Z,54.1
2019-03-24T08:55:34.294Z,54.1
2019-03-24T08:56:24.051Z,54.1
2019-03-24T08:57:13.852Z,54.1
2019-03-24T08:58:04.253Z,54.1
2019-03-24T08:58:53.674Z,54.1
2019-03-24T08:59:44.344Z,54
2019-03-24T09:00:35.442Z,54
2019-03-24T09:01:24.134Z,54
2019-03-24T09:02:14.231Z,54
2019-03-24T09:03:04.544Z,54
2019-03-24T09:03:54.166Z,53.9
2019-03-24T09:04:44.947Z,53.9
2019-03-24T09:05:37.034Z,53.9
2019-03-24T09:06:24.519Z,53.9
2019-03-24T09:07:14.851Z,53.9
2019-03-24T09:08:04.735Z,53.9
2019-03-24T09:08:54.697Z,53.9
2019-03-24T09:09:44.194Z,53.9
2019-03-24T09:10:34.523Z,53.9
2019-03-24T09:11:36.061Z,53.9
2019-03-24T09:12:15.468Z,53.9
2019-03-24T09:13:04.986Z,53.9
2019-03-24T09:13:55.334Z,53.9
2019-03-24T09:14:45.723Z,53.9
2019-03-24T09:15:35.465Z,53.9
2019-03-24T09:16:25.028Z,53.8
2019-03-24T09:17:15.309Z,53.8
2019-03-24T09:18:05.966Z,53.8
2019-03-24T09:18:57.683Z,53.8
2019-03-24T09:19:45.763Z,53.8
2019-03-24T09:20:46.485Z,53.8
2019-03-24T09:21:25.568Z,53.8
2019-03-24T09:22:15.138Z,53.8
2019-03-24T09:23:05.720Z,53.8
2019-03-24T09:23:55.560Z,53.8
2019-03-24T09:24:45.590Z,53.7
2019-03-24T09:25:37.112Z,53.6
2019-03-24T09:26:25.665Z,53.3
2019-03-24T09:27:16.055Z,53.3
2019-03-24T09:28:09.010Z,53.1
2019-03-24T09:28:56.175Z,53.1
2019-03-24T09:29:46.533Z,53.1
2019-03-24T09:30:36.842Z,53.3
2019-03-24T09:31:26.340Z,53.3
2019-03-24T09:32:16.970Z,53.3
2019-03-24T09:33:06.261Z,53.4
2019-03-24T09:33:56.517Z,53.4
2019-03-24T09:34:46.868Z,53.6
2019-03-24T09:35:37.225Z,53.6
2019-03-24T09:36:26.962Z,53.6
2019-03-24T09:37:16.762Z,53.8
2019-03-24T09:38:06.569Z,53.9
2019-03-24T09:38:57.154Z,54
2019-03-24T09:39:46.400Z,54.1
2019-03-24T09:40:37.332Z,54.1
2019-03-24T09:41:27.377Z,54.2
2019-03-24T09:42:17.411Z,54.4
2019-03-24T09:43:07.232Z,54.5
2019-03-24T09:43:56.967Z,54.6
2019-03-24T09:44:47.301Z,54.6
2019-03-24T09:45:37.421Z,54.8
2019-03-24T09:46:27.729Z,54.9
2019-03-24T09:47:17.749Z,55
2019-03-24T09:48:08.127Z,55.1
2019-03-24T09:49:07.692Z,55.2
2019-03-24T09:49:47.921Z,55.3
2019-03-24T09:50:37.911Z,55.3
2019-03-24T09:51:27.794Z,55.4
2019-03-24T09:52:17.856Z,55.6
2019-03-24T09:53:08.540Z,55.7
2019-03-24T09:53:58.523Z,55.8
2019-03-24T09:54:48.080Z,55.9
2019-03-24T09:55:38.358Z,55.9
2019-03-24T09:56:28.136Z,56
2019-03-24T09:57:17.951Z,56.1
2019-03-24T09:58:08.288Z,56.2
2019-03-24T09:58:58.326Z,56.3
2019-03-24T09:59:48.643Z,56.4
2019-03-24T10:00:39.020Z,56.5
2019-03-24T10:01:29.100Z,56.6
2019-03-24T10:02:18.841Z,56.6
2019-03-24T10:03:08.628Z,56.8
2019-03-24T10:03:59.227Z,56.8
2019-03-24T10:06:25.335Z,57.1
2019-03-24T10:07:15.168Z,57.2
2019-03-24T10:08:05.201Z,57.3
2019-03-24T10:08:55.495Z,57.3
2019-03-24T10:09:45.295Z,57.5
2019-03-24T10:10:36.208Z,57.6
2019-03-24T10:11:26.498Z,57.6
2019-03-24T10:12:16.367Z,57.7
2019-03-24T10:13:06.664Z,57.8
2019-03-24T10:13:56.425Z,57.9
2019-03-24T10:14:46.772Z,57.9
2019-03-24T10:15:36.580Z,57.9
2019-03-24T10:16:26.887Z,58
2019-03-24T10:17:16.433Z,58
2019-03-24T10:18:06.977Z,58.1
2019-03-24T10:18:56.817Z,58.2
2019-03-24T10:19:46.855Z,58.3
2019-03-24T10:20:36.662Z,58.4
2019-03-24T10:21:27.245Z,58.4
2019-03-24T10:23:07.394Z,58.6
2019-03-24T10:23:57.161Z,58.6
2019-03-24T10:24:47.262Z,58.8
2019-03-24T10:25:36.997Z,58.8
2019-03-24T10:26:27.050Z,58.8
2019-03-24T10:27:16.612Z,58.9
2019-03-24T10:28:07.776Z,59
2019-03-24T10:28:56.971Z,59.2
2019-03-24T10:29:47.588Z,59.3
2019-03-24T10:30:37.626Z,59.3
2019-03-24T10:31:27.704Z,59.3
2019-03-24T10:32:17.769Z,59.4
2019-03-24T10:33:07.841Z,59.5
2019-03-24T10:33:58.178Z,59.6
2019-03-24T10:34:47.969Z,59.7
2019-03-24T10:35:38.264Z,59.8
2019-03-24T10:36:28.068Z,59.9
2019-03-24T10:37:18.444Z,59.9
2019-03-24T10:38:07.396Z,60
2019-03-24T10:38:57.951Z,60.1
2019-03-24T10:39:47.879Z,60.2
2019-03-24T10:40:38.098Z,60.3
2019-03-24T10:41:26.763Z,60.4
2019-03-24T10:42:17.933Z,60.4
2019-03-24T10:43:08.838Z,60.6
2019-03-24T10:43:58.321Z,60.7
2019-03-24T10:44:47.838Z,60.8
2019-03-24T10:45:39.010Z,60.9
2019-03-24T10:46:28.219Z,60.9
2019-03-24T10:47:17.787Z,61
2019-03-24T10:48:08.922Z,61.1
2019-03-24T10:48:58.421Z,61.1
2019-03-24T10:49:48.840Z,61.2
2019-03-24T10:50:39.575Z,61.3
2019-03-24T10:51:28.141Z,61.4
2019-03-24T10:52:19.467Z,61.6
2019-03-24T10:53:09.045Z,61.6
2019-03-24T10:53:59.335Z,61.6
2019-03-24T10:54:49.103Z,61.8
2019-03-24T10:55:39.350Z,61.8
2019-03-24T10:56:28.974Z,61.9
2019-03-24T10:57:19.597Z,62
2019-03-24T10:58:09.987Z,62.1
2019-03-24T10:58:59.928Z,62.1
2019-03-24T10:59:49.478Z,62.3
2019-03-24T11:00:39.885Z,62.4
2019-03-24T11:01:29.062Z,62.4
2019-03-24T11:02:19.722Z,62.5
2019-03-24T11:03:09.733Z,62.6
2019-03-24T11:03:59.499Z,62.7
2019-03-24T11:04:49.867Z,62.8
2019-03-24T11:05:39.922Z,62.9
2019-03-24T11:06:29.137Z,62.9
2019-03-24T11:07:20.069Z,63
2019-03-24T11:08:10.380Z,63.1
2019-03-24T11:08:59.950Z,63.1
2019-03-24T11:09:50.475Z,63.2
2019-03-24T11:10:40.277Z,63.2
2019-03-24T11:11:29.508Z,63.3
2019-03-24T11:12:20.139Z,63.4
2019-03-24T11:13:25.119Z,63.5
2019-03-24T11:14:01.079Z,63.6
2019-03-24T11:14:50.294Z,63.6
2019-03-24T11:15:40.089Z,63.8
2019-03-24T11:16:31.273Z,63.8
2019-03-24T11:17:20.818Z,63.9
2019-03-24T11:18:11.114Z,63.9
2019-03-24T11:19:01.149Z,64.1
2019-03-24T11:19:50.461Z,64.2
2019-03-24T11:20:40.483Z,64.2
2019-03-24T11:21:31.361Z,64.3
2019-03-24T11:22:21.133Z,64.3
2019-03-24T11:23:11.454Z,64.4
2019-03-24T11:24:01.801Z,64.4
2019-03-24T11:24:51.854Z,64.6
2019-03-24T11:25:40.881Z,64.6
2019-03-24T11:26:31.989Z,64.7
2019-03-24T11:27:21.483Z,64.8
2019-03-24T11:28:11.016Z,64.9
2019-03-24T11:29:01.910Z,64.9
2019-03-24T11:29:51.997Z,65.1
2019-03-24T11:30:41.468Z,65.1
2019-03-24T11:31:31.520Z,65.1
2019-03-24T11:32:21.705Z,65.2
2019-03-24T11:33:12.200Z,65.3
2019-03-24T11:34:01.993Z,65.3
2019-03-24T11:34:52.028Z,65.4
2019-03-24T11:35:41.820Z,65.5
2019-03-24T11:36:32.155Z,65.6
2019-03-24T11:37:22.778Z,65.7
2019-03-24T11:38:12.299Z,65.8
2019-03-24T11:39:03.485Z,65.8
2019-03-24T11:39:51.901Z,65.8
2019-03-24T11:40:43.013Z,65.9
2019-03-24T11:41:33.063Z,65.9
2019-03-24T11:42:22.600Z,66
2019-03-24T11:43:12.913Z,66.1
2019-03-24T11:44:02.430Z,66.1
2019-03-24T11:44:52.195Z,66.1
2019-03-24T11:45:43.159Z,66.2
2019-03-24T11:46:47.825Z,66.3
2019-03-24T11:47:31.170Z,66.3
2019-03-24T11:48:12.775Z,66.4
2019-03-24T11:49:02.826Z,66.4
2019-03-24T11:49:53.808Z,66.5
2019-03-24T11:50:43.462Z,66.6
2019-03-24T11:51:33.817Z,66.7
2019-03-24T11:52:23.319Z,66.8
2019-03-24T11:53:13.376Z,66.8
2019-03-24T11:54:03.722Z,66.8
2019-03-24T11:54:53.817Z,66.9
2019-03-24T11:55:43.577Z,66.9
2019-03-24T11:56:33.634Z,66.9
2019-03-24T11:57:23.952Z,67.1
2019-03-24T11:58:14.021Z,67.1
2019-03-24T11:59:04.132Z,67.2
2019-03-24T11:59:53.637Z,67.3
2019-03-24T12:00:43.984Z,67.3
2019-03-24T12:01:42.463Z,67.3
2019-03-24T12:02:23.481Z,67.4
2019-03-24T12:03:14.151Z,67.4
2019-03-24T12:04:04.232Z,67.4
2019-03-24T14:07:25.745Z,69.3
2019-03-24T14:08:15.477Z,69.3